Time;durP1;ratioP1;P1;durP2;ratioP2;P2;SDS_P1;SDS_P2;PMS_P1;PMS_P2;Temp;Humidity;BMP_temperature;BMP_pressure;BME280_temperature;BME280_humidity;BME280_pressure;Samples;Min_cycle;Max_cycle;Signal;HPM_P1;HPM_P2
2022/03/16 00:01:42;;;;;;;19.97;10.30;;;10.10;99.90;;;;;;5073293;28;20218;-75
2022/03/16 00:04:07;;;;;;;19.63;10.13;;;10.10;99.90;;;;;;5072382;28;20556;-72
2022/03/16 00:06:33;;;;;;;22.63;11.00;;;10.00;99.90;;;;;;5055981;28;20226;-73
2022/03/16 00:08:58;;;;;;;19.13;10.13;;;10.00;99.90;;;;;;5073152;28;20273;-73
2022/03/16 00:11:24;;;;;;;19.07;10.33;;;10.00;99.90;;;;;;5073228;28;20207;-72
2022/03/16 00:13:49;;;;;;;15.30;10.13;;;10.00;99.90;;;;;;5071940;28;20214;-72
2022/03/16 00:16:15;;;;;;;19.50;10.93;;;10.00;99.90;;;;;;5073344;28;20207;-75
2022/03/16 00:18:40;;;;;;;21.53;11.57;;;10.00;99.90;;;;;;5059866;28;20222;-72
2022/03/16 00:21:06;;;;;;;17.17;10.07;;;10.00;99.90;;;;;;5073745;28;20234;-72
2022/03/16 00:23:32;;;;;;;20.10;10.17;;;10.00;99.90;;;;;;5073221;28;20726;-72
2022/03/16 00:25:57;;;;;;;18.60;11.03;;;9.90;99.90;;;;;;5070293;28;20232;-75
2022/03/16 00:28:23;;;;;;;23.67;10.67;;;9.90;99.90;;;;;;5071876;28;20632;-75
2022/03/16 00:30:49;;;;;;;21.47;11.17;;;9.80;99.90;;;;;;5033364;28;20200;-73
2022/03/16 00:33:14;;;;;;;20.70;11.10;;;9.70;99.90;;;;;;5034542;28;20177;-73
2022/03/16 00:35:40;;;;;;;19.30;11.23;;;9.70;99.90;;;;;;5071819;28;20191;-76
2022/03/16 00:38:05;;;;;;;20.23;10.97;;;9.70;99.90;;;;;;5070933;28;20602;-73
2022/03/16 00:40:34;;;;;;;22.73;12.50;;;9.70;99.90;;;;;;5061674;28;20221;-72
2022/03/16 00:43:00;;;;;;;17.67;11.03;;;9.60;99.90;;;;;;5058934;28;20214;-73
2022/03/16 00:45:25;;;;;;;22.90;11.30;;;9.60;99.90;;;;;;5055970;28;20198;-77
2022/03/16 00:47:51;;;;;;;20.30;11.43;;;9.60;99.90;;;;;;5059883;28;20191;-73
2022/03/16 00:50:17;;;;;;;23.60;12.10;;;9.60;99.90;;;;;;5057449;28;20692;-74
2022/03/16 00:52:43;;;;;;;23.10;12.43;;;9.70;99.90;;;;;;5053548;28;20213;-73
2022/03/16 00:55:08;;;;;;;22.40;11.93;;;9.60;99.90;;;;;;5057489;28;20241;-72
2022/03/16 00:57:34;;;;;;;23.13;11.63;;;9.60;99.90;;;;;;5059716;28;20221;-73
2022/03/16 01:00:00;;;;;;;23.80;13.03;;;9.50;99.90;;;;;;5060856;28;20175;-74
2022/03/16 01:02:25;;;;;;;22.90;12.80;;;9.50;99.90;;;;;;5062151;28;20210;-71
2022/03/16 01:04:51;;;;;;;22.73;13.03;;;9.40;99.90;;;;;;5075932;28;20211;-73
2022/03/16 01:07:16;;;;;;;21.93;12.47;;;9.40;99.90;;;;;;5073833;28;20683;-73
2022/03/16 01:09:42;;;;;;;24.87;13.17;;;9.30;99.90;;;;;;5072434;28;20264;-72
2022/03/16 01:12:08;;;;;;;23.37;12.67;;;9.30;99.90;;;;;;5071966;28;20175;-72
2022/03/16 01:14:34;;;;;;;22.90;13.37;;;9.30;99.90;;;;;;5072073;28;20219;-72
2022/03/16 01:16:59;;;;;;;23.07;13.80;;;9.30;99.90;;;;;;5083014;22;20285;-75
2022/03/16 01:19:25;;;;;;;22.77;13.97;;;9.30;99.90;;;;;;5052322;28;20214;-75
2022/03/16 01:21:50;;;;;;;24.20;13.47;;;9.20;99.90;;;;;;5051487;28;20266;-76
2022/03/16 01:24:16;;;;;;;22.27;13.23;;;9.20;99.90;;;;;;5053160;28;20237;-75
2022/03/16 01:26:42;;;;;;;20.43;12.80;;;9.20;99.90;;;;;;5051800;28;20195;-75
2022/03/16 01:29:07;;;;;;;26.73;13.30;;;9.20;99.90;;;;;;5050574;28;20212;-75
2022/03/16 01:31:34;;;;;;;29.07;13.83;;;9.10;99.90;;;;;;5051276;28;20237;-75
2022/03/16 01:34:00;;;;;;;22.97;12.67;;;9.10;99.90;;;;;;5052505;28;20690;-75
2022/03/16 01:36:26;;;;;;;23.70;13.00;;;9.10;99.90;;;;;;5052519;28;20275;-75
2022/03/16 01:38:51;;;;;;;24.10;12.67;;;9.10;99.90;;;;;;5052715;28;20183;-75
2022/03/16 01:41:17;;;;;;;25.83;13.20;;;9.00;99.90;;;;;;5052520;28;20211;-75
2022/03/16 01:43:43;;;;;;;24.63;13.67;;;8.90;99.90;;;;;;5052653;28;20203;-75
2022/03/16 01:46:09;;;;;;;21.13;12.37;;;8.90;99.90;;;;;;5052898;28;20207;-74
2022/03/16 01:48:34;;;;;;;24.67;13.47;;;8.90;99.90;;;;;;5051997;28;20211;-75
2022/03/16 01:51:00;;;;;;;23.93;12.23;;;8.80;99.90;;;;;;5053334;28;20182;-74
2022/03/16 01:53:26;;;;;;;21.40;12.63;;;8.80;99.90;;;;;;5050937;28;20285;-75
2022/03/16 01:55:52;;;;;;;22.23;13.20;;;8.80;99.90;;;;;;5050733;28;20653;-75
2022/03/16 01:58:17;;;;;;;23.30;13.47;;;8.80;99.90;;;;;;5051541;28;20228;-74
2022/03/16 02:00:43;;;;;;;25.37;12.87;;;8.70;99.90;;;;;;5052326;28;20699;-74
2022/03/16 02:03:09;;;;;;;22.27;12.90;;;8.70;99.90;;;;;;5053193;28;20215;-74
2022/03/16 02:05:36;;;;;;;23.27;12.83;;;8.70;99.90;;;;;;5050833;28;20216;-75
2022/03/16 02:08:04;;;;;;;21.73;12.30;;;8.60;99.90;;;;;;5050207;28;20238;-74
2022/03/16 02:10:31;;;;;;;22.67;12.33;;;8.60;99.90;;;;;;5051865;28;20295;-74
2022/03/16 02:12:57;;;;;;;19.43;11.93;;;8.50;99.90;;;;;;5050819;28;20212;-74
2022/03/16 02:15:23;;;;;;;27.37;12.70;;;8.50;99.90;;;;;;5052255;28;20191;-74
2022/03/16 02:17:50;;;;;;;23.23;11.80;;;8.50;99.90;;;;;;5051934;28;20395;-74
2022/03/16 02:20:17;;;;;;;23.60;12.23;;;8.50;99.90;;;;;;5051858;28;20294;-74
2022/03/16 02:23:05;;;;;;;23.83;12.97;;;8.40;99.90;;;;;;5052200;28;20230;-74
2022/03/16 02:25:31;;;;;;;22.13;12.77;;;8.40;99.90;;;;;;5051842;28;20299;-74
2022/03/16 02:27:57;;;;;;;22.90;13.07;;;8.40;99.90;;;;;;5052915;28;20207;-73
2022/03/16 02:30:24;;;;;;;23.93;12.40;;;8.40;99.90;;;;;;5055837;28;20179;-73
2022/03/16 02:32:50;;;;;;;22.30;12.03;;;8.30;99.90;;;;;;5047072;28;20262;-73
2022/03/16 02:35:16;;;;;;;19.83;12.13;;;8.30;99.90;;;;;;5054777;28;21008;-73
2022/03/16 02:37:42;;;;;;;24.20;12.00;;;8.30;99.90;;;;;;5051476;28;20225;-73
2022/03/16 02:40:10;;;;;;;20.70;12.33;;;8.30;99.90;;;;;;5051475;28;20211;-74
2022/03/16 02:42:36;;;;;;;22.27;12.37;;;8.30;99.90;;;;;;5050562;28;20676;-73
2022/03/16 02:45:03;;;;;;;21.50;11.47;;;8.20;99.90;;;;;;5050891;28;20171;-74
2022/03/16 02:47:29;;;;;;;22.53;11.53;;;8.20;99.90;;;;;;5051549;28;20728;-73
2022/03/16 02:49:54;;;;;;;20.77;11.47;;;8.10;99.90;;;;;;5050954;28;20238;-74
2022/03/16 02:52:22;;;;;;;23.80;11.97;;;8.10;99.90;;;;;;5050436;28;20219;-74
2022/03/16 02:54:48;;;;;;;18.63;10.60;;;8.10;99.90;;;;;;5050407;28;20614;-73
2022/03/16 02:57:16;;;;;;;19.97;11.97;;;8.00;99.90;;;;;;5051362;28;20285;-74
2022/03/16 02:59:42;;;;;;;21.90;11.57;;;8.00;99.90;;;;;;5051056;28;20249;-74
2022/03/16 03:02:08;;;;;;;21.80;11.87;;;8.00;99.90;;;;;;5050199;28;20311;-74
2022/03/16 03:04:33;;;;;;;20.63;11.33;;;8.00;99.90;;;;;;5050026;28;20326;-74
2022/03/16 03:06:59;;;;;;;25.70;11.40;;;8.00;99.90;;;;;;5050127;28;20766;-76
2022/03/16 03:09:25;;;;;;;25.17;12.10;;;7.90;99.90;;;;;;5049451;28;20190;-74
2022/03/16 03:11:51;;;;;;;25.40;12.20;;;7.90;99.90;;;;;;5052042;28;20171;-73
2022/03/16 03:14:16;;;;;;;22.30;11.70;;;7.90;99.90;;;;;;5051680;28;20283;-74
2022/03/16 03:16:42;;;;;;;25.83;12.17;;;7.90;99.90;;;;;;5050736;28;20219;-74
2022/03/16 03:19:07;;;;;;;22.20;11.57;;;7.90;99.90;;;;;;5054617;28;20208;-75
2022/03/16 03:21:33;;;;;;;18.70;10.97;;;7.90;99.90;;;;;;5055664;28;20224;-73
2022/03/16 03:23:59;;;;;;;21.53;11.80;;;7.80;99.90;;;;;;5054820;28;20186;-73
2022/03/16 03:26:24;;;;;;;21.40;11.70;;;7.80;99.90;;;;;;5048305;28;20303;-73
2022/03/16 03:28:50;;;;;;;22.43;12.00;;;7.70;99.90;;;;;;5054838;28;20240;-73
2022/03/16 03:31:15;;;;;;;21.23;12.40;;;7.70;99.90;;;;;;5055412;28;20291;-74
2022/03/16 03:33:41;;;;;;;23.30;11.70;;;7.70;99.90;;;;;;5053451;28;20211;-75
2022/03/16 03:36:06;;;;;;;22.10;11.13;;;7.70;99.90;;;;;;5055584;28;20269;-75
2022/03/16 03:38:32;;;;;;;27.73;12.80;;;7.60;99.90;;;;;;5046268;28;20200;-75
2022/03/16 03:40:57;;;;;;;31.50;13.00;;;7.60;99.90;;;;;;5055011;28;20628;-76
2022/03/16 03:43:23;;;;;;;21.63;11.20;;;7.50;99.90;;;;;;5054615;28;20208;-75
2022/03/16 03:45:48;;;;;;;24.20;12.33;;;7.50;99.90;;;;;;5054861;28;20217;-75
2022/03/16 03:48:14;;;;;;;24.33;12.03;;;7.50;99.90;;;;;;5053450;28;20645;-75
2022/03/16 03:50:39;;;;;;;26.70;12.23;;;7.50;99.90;;;;;;5055442;28;20188;-75
2022/03/16 03:53:05;;;;;;;24.60;11.97;;;7.40;99.90;;;;;;5053339;28;20235;-76
2022/03/16 03:55:30;;;;;;;22.20;12.77;;;7.40;99.90;;;;;;5053261;28;20247;-75
2022/03/16 03:57:57;;;;;;;22.07;11.87;;;7.40;99.90;;;;;;5052852;28;20215;-75
2022/03/16 04:00:23;;;;;;;25.13;11.73;;;7.40;99.90;;;;;;5052693;28;20199;-75
2022/03/16 04:02:49;;;;;;;25.67;12.30;;;7.40;99.90;;;;;;5054921;28;20243;-76
2022/03/16 04:05:17;;;;;;;21.77;12.17;;;7.40;99.90;;;;;;5053537;28;20624;-75
2022/03/16 04:07:42;;;;;;;20.70;11.23;;;7.30;99.90;;;;;;5053796;28;20211;-74
2022/03/16 04:10:08;;;;;;;21.57;11.60;;;7.30;99.90;;;;;;5052995;28;20215;-75
2022/03/16 04:12:34;;;;;;;29.47;11.97;;;7.20;99.90;;;;;;5054422;28;20627;-74
2022/03/16 04:14:59;;;;;;;26.53;11.90;;;7.20;99.90;;;;;;5054856;28;20221;-75
2022/03/16 04:17:25;;;;;;;21.07;12.43;;;7.20;99.90;;;;;;5054022;28;20246;-74
2022/03/16 04:19:50;;;;;;;24.27;11.30;;;7.20;99.90;;;;;;5053719;28;20212;-75
2022/03/16 04:22:16;;;;;;;23.23;12.00;;;7.10;99.90;;;;;;5054182;28;20208;-75
2022/03/16 04:24:42;;;;;;;25.13;12.40;;;7.00;99.90;;;;;;5052701;28;20235;-75
2022/03/16 04:27:07;;;;;;;21.73;11.33;;;7.00;99.90;;;;;;5054536;28;20204;-74
2022/03/16 04:29:33;;;;;;;22.83;11.47;;;7.00;99.90;;;;;;5053619;28;20211;-75
2022/03/16 04:31:58;;;;;;;26.63;13.07;;;6.90;99.90;;;;;;5054403;28;20227;-74
2022/03/16 04:34:24;;;;;;;24.17;12.00;;;6.90;99.90;;;;;;5053935;28;20302;-74
2022/03/16 04:36:49;;;;;;;20.10;12.27;;;6.90;99.90;;;;;;5054411;28;20589;-75
2022/03/16 04:39:16;;;;;;;23.97;12.03;;;7.00;99.90;;;;;;5052838;28;20184;-76
2022/03/16 04:41:42;;;;;;;22.53;12.37;;;7.00;99.90;;;;;;5052804;28;20729;-75
2022/03/16 04:44:08;;;;;;;24.37;12.23;;;7.00;99.90;;;;;;5054025;28;20219;-74
2022/03/16 04:46:33;;;;;;;21.43;12.07;;;7.00;99.90;;;;;;5053471;28;20215;-73
2022/03/16 04:48:59;;;;;;;24.63;12.70;;;7.00;99.90;;;;;;5052006;28;20204;-74
2022/03/16 04:51:24;;;;;;;25.73;12.03;;;6.90;99.90;;;;;;5053266;28;20220;-76
2022/03/16 04:53:50;;;;;;;25.13;13.13;;;6.90;99.90;;;;;;5054040;28;20199;-75
2022/03/16 04:56:15;;;;;;;27.90;13.50;;;6.80;99.90;;;;;;5053405;28;20294;-75
2022/03/16 04:58:40;;;;;;;24.83;12.30;;;6.80;99.90;;;;;;5052864;28;20254;-76
2022/03/16 05:01:06;;;;;;;25.30;13.00;;;6.80;99.90;;;;;;5052497;28;20212;-75
2022/03/16 05:03:31;;;;;;;28.97;13.30;;;6.80;99.90;;;;;;5053332;28;20575;-75
2022/03/16 05:05:58;;;;;;;26.10;13.07;;;6.70;99.90;;;;;;5053917;28;20175;-74
2022/03/16 05:08:23;;;;;;;25.50;13.80;;;6.70;99.90;;;;;;5052353;28;20208;-74
2022/03/16 05:10:49;;;;;;;26.83;12.60;;;6.60;99.90;;;;;;5052054;28;20605;-73
2022/03/16 05:13:14;;;;;;;25.73;13.87;;;6.60;99.90;;;;;;5053229;28;20207;-74
2022/03/16 05:15:40;;;;;;;25.93;14.37;;;6.60;99.90;;;;;;5051417;28;20211;-74
2022/03/16 05:18:06;;;;;;;27.37;13.27;;;6.60;99.90;;;;;;5051566;28;20248;-75
2022/03/16 05:20:31;;;;;;;28.23;13.37;;;6.60;99.90;;;;;;5052544;28;20276;-73
2022/03/16 05:22:57;;;;;;;26.33;13.90;;;6.70;99.90;;;;;;5052603;28;20301;-74
2022/03/16 05:25:25;;;;;;;26.13;12.90;;;6.70;99.90;;;;;;5052992;28;20230;-74
2022/03/16 05:27:51;;;;;;;26.20;13.83;;;6.70;99.90;;;;;;5052782;28;20237;-75
2022/03/16 05:30:16;;;;;;;28.73;14.03;;;6.70;99.90;;;;;;5052665;28;20672;-74
2022/03/16 05:32:43;;;;;;;28.10;14.50;;;6.70;99.90;;;;;;5053263;28;20172;-73
2022/03/16 05:35:11;;;;;;;28.73;13.20;;;6.80;99.90;;;;;;5053139;28;20668;-75
2022/03/16 05:37:37;;;;;;;28.10;14.07;;;6.80;99.90;;;;;;5048170;28;20739;-76
2022/03/16 05:40:04;;;;;;;27.67;13.27;;;6.80;99.90;;;;;;5051075;28;20250;-73
2022/03/16 05:42:29;;;;;;;24.20;13.47;;;6.90;99.90;;;;;;5051242;28;20592;-75
2022/03/16 05:44:55;;;;;;;27.47;14.27;;;7.00;99.90;;;;;;5053244;28;20202;-74
2022/03/16 05:47:22;;;;;;;25.50;13.60;;;7.10;99.90;;;;;;5051040;28;20219;-74
2022/03/16 05:49:50;;;;;;;28.87;14.33;;;7.20;99.90;;;;;;5052166;28;20242;-74
2022/03/16 05:52:16;;;;;;;26.57;13.67;;;7.20;99.90;;;;;;5052145;28;20243;-73
2022/03/16 05:54:42;;;;;;;27.20;13.57;;;7.20;99.90;;;;;;5049310;28;20634;-75
2022/03/16 05:57:09;;;;;;;26.60;13.30;;;7.30;99.90;;;;;;5051681;28;20200;-74
2022/03/16 05:59:34;;;;;;;27.00;14.60;;;7.30;99.90;;;;;;5051735;28;20294;-76
2022/03/16 06:02:00;;;;;;;31.07;14.77;;;7.40;99.90;;;;;;5051178;28;20745;-74
2022/03/16 06:04:25;;;;;;;22.90;13.30;;;7.30;99.90;;;;;;5052399;28;20218;-75
2022/03/16 06:06:51;;;;;;;25.73;14.13;;;7.50;99.90;;;;;;5052136;28;20350;-75
2022/03/16 06:09:16;;;;;;;27.23;13.83;;;7.50;99.90;;;;;;5049976;28;20214;-75
2022/03/16 06:11:42;;;;;;;32.07;14.53;;;7.70;99.90;;;;;;5053044;28;20184;-75
2022/03/16 06:14:07;;;;;;;33.97;15.77;;;7.90;99.90;;;;;;5050970;28;20204;-74
2022/03/16 06:16:32;;;;;;;27.80;15.77;;;8.50;99.90;;;;;;5052101;28;20245;-75
2022/03/16 06:18:58;;;;;;;28.57;14.57;;;10.70;99.90;;;;;;5050205;28;20210;-75
2022/03/16 06:21:23;;;;;;;28.60;15.20;;;12.30;99.90;;;;;;5050856;28;20922;-74
2022/03/16 06:23:49;;;;;;;25.77;15.60;;;13.70;99.90;;;;;;5052359;28;20207;-75
2022/03/16 06:26:15;;;;;;;22.83;14.33;;;14.70;99.90;;;;;;5052157;28;20273;-75
2022/03/16 06:28:40;;;;;;;24.90;14.95;;;15.50;99.90;;;;;;5051335;28;20253;-75
2022/03/16 06:31:06;;;;;;;28.33;15.15;;;16.10;99.90;;;;;;5051154;28;20306;-73
2022/03/16 06:33:31;;;;;;;24.60;14.90;;;16.90;99.90;;;;;;5050510;28;20652;-74
2022/03/16 06:35:57;;;;;;;23.58;15.95;;;17.50;99.90;;;;;;5051120;28;20219;-76
2022/03/16 06:38:22;;;;;;;26.42;17.10;;;18.20;99.90;;;;;;5050705;28;20203;-74
2022/03/16 06:40:48;;;;;;;28.13;17.15;;;18.30;99.90;;;;;;5051729;28;20223;-75
2022/03/16 06:43:13;;;;;;;26.88;16.65;;;17.80;99.90;;;;;;5051778;28;20612;-74
2022/03/16 06:45:39;;;;;;;22.67;16.58;;;17.40;99.90;;;;;;5051709;28;20581;-74
2022/03/16 06:48:04;;;;;;;25.10;17.23;;;17.40;99.90;;;;;;5050291;28;20201;-75
2022/03/16 06:50:30;;;;;;;25.45;16.55;;;18.20;99.90;;;;;;5051395;28;20211;-77
2022/03/16 06:52:57;;;;;;;28.35;17.33;;;18.50;99.90;;;;;;5054445;28;20222;-75
2022/03/16 06:55:22;;;;;;;27.75;17.00;;;18.80;99.90;;;;;;5055722;28;20211;-76
2022/03/16 06:57:48;;;;;;;26.58;17.55;;;19.30;99.90;;;;;;5054032;28;20265;-75
2022/03/16 07:00:15;;;;;;;25.27;17.73;;;19.70;99.90;;;;;;5055275;28;20248;-75
2022/03/16 07:02:55;;;;;;;24.65;15.93;;;19.80;99.90;;;;;;5055047;28;20266;-75
2022/03/16 07:05:23;;;;;;;28.63;17.13;;;20.30;99.90;;;;;;5055760;28;20616;-77
2022/03/16 07:07:49;;;;;;;24.98;16.90;;;20.20;99.90;;;;;;5055371;28;20207;-75
2022/03/16 07:10:15;;;;;;;24.60;16.95;;;19.90;99.90;;;;;;5053811;28;20787;-75
2022/03/16 07:12:40;;;;;;;24.40;16.02;;;19.80;99.90;;;;;;5054148;28;20230;-75
2022/03/16 07:15:07;;;;;;;22.60;17.33;;;19.60;99.90;;;;;;5055917;28;20176;-75
2022/03/16 07:17:32;;;;;;;24.92;17.73;;;19.80;99.90;;;;;;5071356;22;20247;-72
2022/03/16 07:19:58;;;;;;;23.50;17.25;;;19.80;99.90;;;;;;5073731;28;20218;-73
2022/03/16 07:22:23;;;;;;;24.08;16.17;;;20.50;99.90;;;;;;5064154;28;20211;-74
2022/03/16 07:24:49;;;;;;;23.45;17.00;;;20.40;99.90;;;;;;5051922;28;20218;-72
2022/03/16 07:27:14;;;;;;;20.83;16.33;;;20.10;99.90;;;;;;5049640;28;20203;-71
2022/03/16 07:29:40;;;;;;;22.15;16.42;;;20.30;99.90;;;;;;5053731;28;20176;-71
2022/03/16 07:32:06;;;;;;;22.48;15.80;;;20.70;99.90;;;;;;5069862;28;20751;-71
2022/03/16 07:34:31;;;;;;;28.08;16.08;;;20.70;99.90;;;;;;5073840;28;20203;-72
2022/03/16 07:36:57;;;;;;;23.92;16.20;;;20.30;99.90;;;;;;5072509;28;20237;-72
2022/03/16 07:39:22;;;;;;;21.25;17.23;;;19.70;99.90;;;;;;5071924;28;20274;-71
2022/03/16 07:41:48;;;;;;;26.50;16.70;;;19.70;99.90;;;;;;5063248;28;21044;-73
2022/03/16 07:44:14;;;;;;;26.70;17.50;;;19.70;99.90;;;;;;5042942;28;20243;-74
2022/03/16 07:46:40;;;;;;;30.88;17.90;;;19.60;99.90;;;;;;5070104;28;20198;-72
2022/03/16 07:49:06;;;;;;;22.33;16.65;;;19.50;99.90;;;;;;5066620;28;20214;-72
2022/03/16 07:51:31;;;;;;;23.95;17.23;;;20.10;99.90;;;;;;5072496;28;20221;-77
2022/03/16 07:53:57;;;;;;;28.10;17.30;;;20.90;99.90;;;;;;5071855;28;20186;-73
2022/03/16 07:56:22;;;;;;;28.42;17.58;;;20.80;99.90;;;;;;5065287;28;20252;-75
2022/03/16 07:58:48;;;;;;;24.85;17.00;;;20.60;99.90;;;;;;5072458;28;20260;-72
2022/03/16 08:01:14;;;;;;;25.48;17.20;;;20.60;99.90;;;;;;5068375;28;20223;-74
2022/03/16 08:03:39;;;;;;;23.55;17.02;;;20.90;99.90;;;;;;5061747;28;20214;-74
2022/03/16 08:06:05;;;;;;;26.08;17.38;;;20.10;99.90;;;;;;5073670;28;20781;-73
2022/03/16 08:08:31;;;;;;;26.88;17.23;;;20.00;99.90;;;;;;5070772;28;20226;-71
2022/03/16 08:10:58;;;;;;;21.05;15.05;;;19.50;99.90;;;;;;5071923;28;20285;-70
2022/03/16 08:13:24;;;;;;;19.13;14.18;;;19.40;99.90;;;;;;5071726;28;20203;-70
2022/03/16 08:15:49;;;;;;;22.00;13.52;;;18.20;99.90;;;;;;5073074;28;20207;-70
2022/03/16 08:18:15;;;;;;;20.55;13.25;;;16.50;99.90;;;;;;5071232;28;20290;-72
2022/03/16 08:20:40;;;;;;;18.92;12.63;;;15.90;99.90;;;;;;5073375;28;20268;-72
2022/03/16 08:23:06;;;;;;;20.67;12.73;;;16.60;99.90;;;;;;5073283;28;20199;-71
2022/03/16 08:25:31;;;;;;;20.17;12.80;;;16.60;99.90;;;;;;5064960;28;20646;-73
2022/03/16 08:27:59;;;;;;;23.30;14.10;;;16.70;99.90;;;;;;5069515;28;20219;-72
2022/03/16 08:30:24;;;;;;;23.20;14.10;;;17.40;99.90;;;;;;5072399;28;20272;-72
2022/03/16 08:32:50;;;;;;;22.08;15.25;;;17.00;99.90;;;;;;5069980;28;20256;-73
2022/03/16 08:35:15;;;;;;;22.20;14.77;;;16.50;99.90;;;;;;5068874;28;20206;-73
2022/03/16 08:37:41;;;;;;;28.80;18.05;;;17.20;99.90;;;;;;5072311;28;20763;-73
2022/03/16 08:40:07;;;;;;;24.58;17.48;;;18.20;99.90;;;;;;5072366;28;20228;-73
2022/03/16 08:42:33;;;;;;;33.35;21.45;;;18.60;99.90;;;;;;5069481;28;20679;-73
2022/03/16 08:44:59;;;;;;;26.38;17.88;;;18.90;99.90;;;;;;5072268;28;20197;-73
2022/03/16 08:47:24;;;;;;;35.75;23.33;;;17.70;99.90;;;;;;5071502;28;20702;-71
2022/03/16 08:49:53;;;;;;;38.85;24.42;;;17.50;99.90;;;;;;5072215;28;20218;-74
2022/03/16 08:52:18;;;;;;;43.05;26.63;;;17.50;99.90;;;;;;5073212;28;20218;-74
2022/03/16 08:54:44;;;;;;;43.38;26.80;;;16.60;99.90;;;;;;5064625;28;20590;-75
2022/03/16 08:57:10;;;;;;;59.65;41.78;;;15.30;99.90;;;;;;5068665;28;20198;-74
2022/03/16 08:59:36;;;;;;;66.75;43.28;;;14.20;99.90;;;;;;5071747;28;20260;-75
2022/03/16 09:02:02;;;;;;;57.07;36.60;;;13.80;99.90;;;;;;5072363;28;20227;-74
2022/03/16 09:04:27;;;;;;;51.50;33.57;;;13.10;99.90;;;;;;5072510;28;20691;-74
2022/03/16 09:06:53;;;;;;;48.00;31.83;;;12.00;99.90;;;;;;5070967;28;20207;-72
2022/03/16 09:09:19;;;;;;;52.43;31.30;;;12.10;99.90;;;;;;5071334;28;20209;-73
2022/03/16 09:11:44;;;;;;;32.37;20.33;;;11.70;99.90;;;;;;5072597;28;20214;-72
2022/03/16 09:14:10;;;;;;;28.20;17.33;;;11.80;99.90;;;;;;5070450;28;20242;-74
2022/03/16 09:16:35;;;;;;;25.37;15.07;;;12.20;99.90;;;;;;5071553;28;20205;-72
2022/03/16 09:19:01;;;;;;;28.47;15.87;;;11.30;99.90;;;;;;5071844;28;20720;-72
2022/03/16 09:21:26;;;;;;;32.80;18.70;;;11.50;99.90;;;;;;5070768;28;20248;-73
2022/03/16 09:23:53;;;;;;;25.17;15.50;;;11.60;99.90;;;;;;5072938;28;20175;-74
2022/03/16 09:26:22;;;;;;;18.20;11.77;;;11.50;99.90;;;;;;5068088;28;20217;-73
2022/03/16 09:28:51;;;;;;;21.13;11.87;;;11.10;99.90;;;;;;5072274;28;20609;-73
2022/03/16 09:31:17;;;;;;;22.43;12.80;;;10.80;99.90;;;;;;5070433;28;20245;-72
2022/03/16 09:33:43;;;;;;;20.80;12.27;;;10.60;99.90;;;;;;5071879;28;20682;-73
2022/03/16 09:36:09;;;;;;;20.43;12.17;;;11.00;99.90;;;;;;5072562;28;20238;-72
2022/03/16 09:38:35;;;;;;;18.50;11.43;;;10.80;99.90;;;;;;5070235;28;20671;-72
2022/03/16 09:41:02;;;;;;;22.23;13.40;;;11.00;99.90;;;;;;5070134;28;20272;-72
2022/03/16 09:43:32;;;;;;;21.97;12.33;;;10.80;99.90;;;;;;5071687;28;20210;-72
2022/03/16 09:45:59;;;;;;;20.37;12.67;;;10.90;99.90;;;;;;5070377;28;20207;-72
2022/03/16 09:48:27;;;;;;;22.97;12.63;;;11.00;99.90;;;;;;5070777;28;20278;-71
2022/03/16 09:50:56;;;;;;;19.50;11.77;;;10.90;99.90;;;;;;5071946;28;20193;-72
2022/03/16 09:53:22;;;;;;;20.07;12.40;;;11.10;99.90;;;;;;5071306;28;20574;-72
2022/03/16 09:55:49;;;;;;;22.53;12.10;;;11.70;99.90;;;;;;5065063;28;20581;-71
2022/03/16 09:58:14;;;;;;;21.47;12.13;;;12.40;99.90;;;;;;5069120;28;20263;-70
2022/03/16 10:00:40;;;;;;;18.97;12.27;;;12.30;99.90;;;;;;5071024;28;21921;-71
2022/03/16 10:03:06;;;;;;;20.73;13.23;;;12.30;99.90;;;;;;5071964;28;20199;-75
2022/03/16 10:05:32;;;;;;;20.60;12.93;;;12.60;99.90;;;;;;5069597;28;20595;-73
2022/03/16 10:08:02;;;;;;;20.40;12.10;;;12.10;99.90;;;;;;5069190;28;20218;-71
2022/03/16 10:13:16;;;;;;;20.00;12.80;;;12.70;99.90;;;;;;5071924;28;20675;-73
2022/03/16 10:15:44;;;;;;;19.60;12.00;;;13.00;99.90;;;;;;5070881;28;20628;-73
2022/03/16 10:18:10;;;;;;;18.20;12.23;;;12.70;99.90;;;;;;5069257;28;20219;-72
2022/03/16 10:20:37;;;;;;;19.67;12.13;;;12.80;99.90;;;;;;5070696;28;20225;-71
2022/03/16 10:23:13;;;;;;;18.40;12.00;;;12.90;99.90;;;;;;5070121;28;20761;-73
2022/03/16 10:25:46;;;;;;;16.83;12.10;;;13.40;99.90;;;;;;5062849;28;20226;-72
2022/03/16 10:28:16;;;;;;;16.10;10.80;;;13.40;99.90;;;;;;5070304;28;20238;-71
2022/03/16 10:30:56;;;;;;;21.93;13.83;;;12.70;99.90;;;;;;5062132;28;20211;-72
2022/03/16 10:33:29;;;;;;;21.53;12.80;;;12.30;99.90;;;;;;5069693;28;20202;-74
2022/03/16 10:35:56;;;;;;;24.77;14.53;;;11.80;99.90;;;;;;5070255;28;20183;-74
2022/03/16 10:38:22;;;;;;;24.57;16.27;;;12.00;99.90;;;;;;5069988;28;20264;-74
2022/03/16 10:40:49;;;;;;;27.33;18.33;;;12.60;99.90;;;;;;5069730;28;20218;-75
2022/03/16 10:49:00;;;;;;;20.43;13.57;;;13.80;99.90;;;;;;5070520;28;20263;-73
2022/03/16 10:51:26;;;;;;;17.53;11.27;;;13.90;99.90;;;;;;5070392;28;20818;-73
2022/03/16 10:53:53;;;;;;;18.90;12.90;;;12.70;99.90;;;;;;5069819;28;20249;-73
2022/03/16 10:56:19;;;;;;;20.83;12.70;;;12.50;99.90;;;;;;5064431;28;20709;-71
2022/03/16 10:58:48;;;;;;;21.93;12.77;;;12.20;99.90;;;;;;5069722;28;20234;-72
2022/03/16 11:01:15;;;;;;;19.23;12.70;;;12.70;99.90;;;;;;5070709;28;20219;-70
2022/03/16 11:03:44;;;;;;;20.33;12.00;;;12.70;99.90;;;;;;5070414;28;20232;-72
2022/03/16 11:06:10;;;;;;;21.23;12.37;;;13.10;99.90;;;;;;5069659;28;20213;-71
2022/03/16 11:08:40;;;;;;;19.03;11.40;;;13.20;99.90;;;;;;5069588;28;20222;-71
2022/03/16 11:13:28;;;;;;;19.53;11.57;;;12.70;99.90;;;;;;5070400;28;20211;-73
2022/03/16 11:13:51;;;;;;;25.87;14.10;;;12.40;99.90;;;;;;5070793;28;20778;-73
2022/03/16 11:16:21;;;;;;;21.77;15.17;;;12.40;99.90;;;;;;5069289;28;20230;-73
2022/03/16 11:18:51;;;;;;;21.03;13.77;;;12.20;99.90;;;;;;5067811;28;20234;-72
2022/03/16 11:21:32;;;;;;;22.17;11.57;;;12.10;99.90;;;;;;5070219;28;20203;-72
2022/03/16 11:24:16;;;;;;;17.90;11.13;;;11.80;99.90;;;;;;5070928;28;20244;-71
2022/03/16 11:27:00;;;;;;;19.27;10.77;;;11.50;99.90;;;;;;5062740;28;20270;-74
2022/03/16 11:29:45;;;;;;;16.00;10.47;;;11.30;99.90;;;;;;5069515;28;20215;-72
2022/03/16 11:32:14;;;;;;;15.90;10.77;;;11.80;99.90;;;;;;5070496;28;20264;-72
2022/03/16 11:34:48;;;;;;;19.07;11.03;;;12.20;99.90;;;;;;5069921;28;20672;-73
2022/03/16 11:37:14;;;;;;;16.97;10.90;;;11.70;99.90;;;;;;5069710;28;20207;-73
2022/03/16 11:39:47;;;;;;;18.87;11.53;;;11.30;99.90;;;;;;5071490;28;20223;-72
2022/03/16 11:42:17;;;;;;;16.47;10.23;;;11.10;99.90;;;;;;5073979;28;20207;-72
2022/03/16 11:44:44;;;;;;;15.77;10.00;;;10.90;99.90;;;;;;5074145;28;20596;-73
2022/03/16 11:47:09;;;;;;;18.43;10.90;;;11.10;99.90;;;;;;5073984;28;20709;-72
2022/03/16 11:49:45;;;;;;;17.00;10.63;;;11.30;99.90;;;;;;5073015;28;20203;-74
2022/03/16 11:52:11;;;;;;;16.83;10.80;;;11.50;99.90;;;;;;5072570;28;20214;-73
2022/03/16 11:54:41;;;;;;;15.80;10.33;;;11.40;99.90;;;;;;5071548;28;20203;-73
2022/03/16 11:57:07;;;;;;;17.73;10.80;;;11.50;99.90;;;;;;5063354;28;20278;-75
2022/03/16 11:59:35;;;;;;;16.10;9.83;;;11.50;99.90;;;;;;5072899;28;20242;-74
2022/03/16 12:02:06;;;;;;;18.57;11.00;;;11.60;99.90;;;;;;5073392;28;20223;-73
2022/03/16 12:04:35;;;;;;;18.10;10.70;;;11.60;99.90;;;;;;5073359;28;20245;-72
2022/03/16 12:07:08;;;;;;;14.17;9.20;;;11.60;99.90;;;;;;5073271;28;20237;-74
2022/03/16 12:09:46;;;;;;;16.77;10.47;;;12.30;99.90;;;;;;5072887;28;20215;-76
2022/03/16 12:12:51;;;;;;;14.70;10.43;;;12.80;99.90;;;;;;5073605;28;20682;-73
2022/03/16 12:15:30;;;;;;;16.07;9.77;;;13.00;99.90;;;;;;5072530;28;20179;-72
2022/03/16 12:17:59;;;;;;;18.27;10.83;;;12.90;99.90;;;;;;5058707;28;20223;-74
2022/03/16 12:20:30;;;;;;;15.97;10.50;;;12.30;99.90;;;;;;5073335;28;20635;-74
2022/03/16 12:22:59;;;;;;;21.17;10.60;;;12.20;99.90;;;;;;5073746;28;20211;-76
2022/03/16 12:25:25;;;;;;;17.50;10.80;;;12.30;99.90;;;;;;5066920;28;20207;-76
2022/03/16 12:30:48;;;;;;;22.57;11.00;;;12.60;99.90;;;;;;5073700;28;20210;-75
2022/03/16 12:33:19;;;;;;;21.97;11.53;;;12.10;99.90;;;;;;5073371;28;20198;-74
2022/03/16 12:35:50;;;;;;;24.03;12.07;;;11.90;99.90;;;;;;5072444;28;20718;-74
2022/03/16 12:38:16;;;;;;;20.83;12.70;;;11.90;99.90;;;;;;5072262;28;20590;-73
2022/03/16 12:43:27;;;;;;;22.27;13.30;;;12.40;99.90;;;;;;5078292;28;20209;-72